sensor_id;sensor_type;location;lat;lon;timestamp;P1;durP1;ratioP1;P2;durP2;ratioP2
6378;SDS011;3222;48.858;10.128;2022-12-18T00:01:05;10.20;;;6.77;;
6378;SDS011;3222;48.858;10.128;2022-12-18T00:03:43;18.93;;;8.90;;
6378;SDS011;3222;48.858;10.128;2022-12-18T00:06:09;13.20;;;7.10;;
6378;SDS011;3222;48.858;10.128;2022-12-18T00:08:35;16.27;;;9.40;;
6378;SDS011;3222;48.858;10.128;2022-12-18T00:11:04;12.77;;;8.00;;
6378;SDS011;3222;48.858;10.128;2022-12-18T00:13:34;11.10;;;7.23;;
6378;SDS011;3222;48.858;10.128;2022-12-18T00:16:04;16.03;;;9.50;;
6378;SDS011;3222;48.858;10.128;2022-12-18T00:18:38;13.00;;;7.77;;
6378;SDS011;3222;48.858;10.128;2022-12-18T00:21:05;19.37;;;10.77;;
6378;SDS011;3222;48.858;10.128;2022-12-18T00:23:33;8.13;;;5.30;;
6378;SDS011;3222;48.858;10.128;2022-12-18T00:26:00;21.70;;;13.53;;
6378;SDS011;3222;48.858;10.128;2022-12-18T00:28:26;17.77;;;9.77;;
6378;SDS011;3222;48.858;10.128;2022-12-18T00:31:02;13.37;;;8.20;;
6378;SDS011;3222;48.858;10.128;2022-12-18T00:33:32;9.63;;;6.90;;
6378;SDS011;3222;48.858;10.128;2022-12-18T00:36:02;15.13;;;8.83;;
6378;SDS011;3222;48.858;10.128;2022-12-18T00:38:42;15.20;;;9.93;;
6378;SDS011;3222;48.858;10.128;2022-12-18T00:41:08;16.83;;;7.53;;
6378;SDS011;3222;48.858;10.128;2022-12-18T00:43:36;14.93;;;8.27;;
6378;SDS011;3222;48.858;10.128;2022-12-18T00:46:03;21.93;;;11.40;;
6378;SDS011;3222;48.858;10.128;2022-12-18T00:48:30;11.67;;;7.40;;
6378;SDS011;3222;48.858;10.128;2022-12-18T00:50:56;17.73;;;9.07;;
6378;SDS011;3222;48.858;10.128;2022-12-18T00:53:22;13.70;;;8.23;;
6378;SDS011;3222;48.858;10.128;2022-12-18T00:55:48;18.90;;;11.87;;
6378;SDS011;3222;48.858;10.128;2022-12-18T00:58:14;12.10;;;8.23;;
6378;SDS011;3222;48.858;10.128;2022-12-18T01:00:41;15.80;;;8.57;;
6378;SDS011;3222;48.858;10.128;2022-12-18T01:03:10;7.50;;;5.53;;
6378;SDS011;3222;48.858;10.128;2022-12-18T01:05:39;16.53;;;9.53;;
6378;SDS011;3222;48.858;10.128;2022-12-18T01:08:06;11.90;;;5.97;;
6378;SDS011;3222;48.858;10.128;2022-12-18T01:10:31;6.30;;;5.40;;
6378;SDS011;3222;48.858;10.128;2022-12-18T01:12:57;9.63;;;7.37;;
6378;SDS011;3222;48.858;10.128;2022-12-18T01:15:23;8.37;;;5.17;;
6378;SDS011;3222;48.858;10.128;2022-12-18T01:17:48;5.63;;;5.07;;
6378;SDS011;3222;48.858;10.128;2022-12-18T01:20:16;6.40;;;5.13;;
6378;SDS011;3222;48.858;10.128;2022-12-18T01:22:42;6.03;;;4.27;;
6378;SDS011;3222;48.858;10.128;2022-12-18T01:25:08;7.37;;;4.77;;
6378;SDS011;3222;48.858;10.128;2022-12-18T01:27:34;6.20;;;5.07;;
6378;SDS011;3222;48.858;10.128;2022-12-18T01:30:02;9.27;;;6.83;;
6378;SDS011;3222;48.858;10.128;2022-12-18T01:32:29;11.57;;;6.80;;
6378;SDS011;3222;48.858;10.128;2022-12-18T01:34:56;10.70;;;4.83;;
6378;SDS011;3222;48.858;10.128;2022-12-18T01:37:22;13.13;;;8.77;;
6378;SDS011;3222;48.858;10.128;2022-12-18T01:39:48;17.70;;;8.53;;
6378;SDS011;3222;48.858;10.128;2022-12-18T01:42:15;12.17;;;7.57;;
6378;SDS011;3222;48.858;10.128;2022-12-18T01:50:13;14.93;;;7.70;;
6378;SDS011;3222;48.858;10.128;2022-12-18T01:52:42;10.17;;;6.70;;
6378;SDS011;3222;48.858;10.128;2022-12-18T01:55:12;10.63;;;8.00;;
6378;SDS011;3222;48.858;10.128;2022-12-18T01:57:39;6.47;;;5.37;;
6378;SDS011;3222;48.858;10.128;2022-12-18T02:00:15;11.40;;;7.47;;
6378;SDS011;3222;48.858;10.128;2022-12-18T02:02:43;12.20;;;7.60;;
6378;SDS011;3222;48.858;10.128;2022-12-18T02:05:11;12.40;;;7.50;;
6378;SDS011;3222;48.858;10.128;2022-12-18T02:10:51;13.17;;;7.53;;
6378;SDS011;3222;48.858;10.128;2022-12-18T02:18:45;10.10;;;4.00;;
6378;SDS011;3222;48.858;10.128;2022-12-18T02:21:28;13.87;;;7.83;;
6378;SDS011;3222;48.858;10.128;2022-12-18T02:26:43;15.70;;;8.70;;
6378;SDS011;3222;48.858;10.128;2022-12-18T02:29:18;13.90;;;6.23;;
6378;SDS011;3222;48.858;10.128;2022-12-18T02:31:55;5.33;;;4.77;;
6378;SDS011;3222;48.858;10.128;2022-12-18T02:34:33;12.30;;;6.07;;
6378;SDS011;3222;48.858;10.128;2022-12-18T02:37:04;12.33;;;7.33;;
6378;SDS011;3222;48.858;10.128;2022-12-18T02:39:36;13.90;;;5.30;;
6378;SDS011;3222;48.858;10.128;2022-12-18T02:42:05;9.57;;;7.53;;
6378;SDS011;3222;48.858;10.128;2022-12-18T02:44:34;14.87;;;7.77;;
6378;SDS011;3222;48.858;10.128;2022-12-18T02:47:08;12.53;;;6.90;;
6378;SDS011;3222;48.858;10.128;2022-12-18T03:00:39;18.73;;;11.47;;
6378;SDS011;3222;48.858;10.128;2022-12-18T03:03:21;17.10;;;7.87;;
6378;SDS011;3222;48.858;10.128;2022-12-18T03:05:53;15.67;;;9.53;;
6378;SDS011;3222;48.858;10.128;2022-12-18T03:08:23;16.27;;;9.00;;
6378;SDS011;3222;48.858;10.128;2022-12-18T03:10:57;8.17;;;5.73;;
6378;SDS011;3222;48.858;10.128;2022-12-18T03:13:28;14.57;;;8.67;;
6378;SDS011;3222;48.858;10.128;2022-12-18T03:16:18;14.93;;;7.57;;
6378;SDS011;3222;48.858;10.128;2022-12-18T03:18:57;19.77;;;9.07;;
6378;SDS011;3222;48.858;10.128;2022-12-18T03:21:38;12.53;;;6.47;;
6378;SDS011;3222;48.858;10.128;2022-12-18T03:24:08;14.40;;;6.17;;
6378;SDS011;3222;48.858;10.128;2022-12-18T03:26:36;16.50;;;9.67;;
6378;SDS011;3222;48.858;10.128;2022-12-18T03:29:08;11.73;;;6.80;;
6378;SDS011;3222;48.858;10.128;2022-12-18T03:31:39;18.47;;;9.10;;
6378;SDS011;3222;48.858;10.128;2022-12-18T03:34:12;16.83;;;8.57;;
6378;SDS011;3222;48.858;10.128;2022-12-18T03:36:44;10.80;;;5.23;;
6378;SDS011;3222;48.858;10.128;2022-12-18T03:39:12;7.03;;;5.40;;
6378;SDS011;3222;48.858;10.128;2022-12-18T03:41:42;12.30;;;6.97;;
6378;SDS011;3222;48.858;10.128;2022-12-18T03:44:36;15.43;;;5.13;;
6378;SDS011;3222;48.858;10.128;2022-12-18T03:50:08;8.53;;;5.20;;
6378;SDS011;3222;48.858;10.128;2022-12-18T03:55:30;10.67;;;5.27;;
6378;SDS011;3222;48.858;10.128;2022-12-18T03:58:02;13.57;;;6.67;;
6378;SDS011;3222;48.858;10.128;2022-12-18T04:00:41;16.23;;;7.87;;
6378;SDS011;3222;48.858;10.128;2022-12-18T04:03:08;11.67;;;7.20;;
6378;SDS011;3222;48.858;10.128;2022-12-18T04:05:41;13.63;;;7.17;;
6378;SDS011;3222;48.858;10.128;2022-12-18T04:08:09;19.03;;;9.40;;
6378;SDS011;3222;48.858;10.128;2022-12-18T04:10:38;21.07;;;9.63;;
6378;SDS011;3222;48.858;10.128;2022-12-18T04:13:04;15.40;;;7.03;;
6378;SDS011;3222;48.858;10.128;2022-12-18T04:15:29;13.30;;;8.37;;
6378;SDS011;3222;48.858;10.128;2022-12-18T04:17:59;11.30;;;6.47;;
6378;SDS011;3222;48.858;10.128;2022-12-18T04:20:31;14.23;;;7.93;;
6378;SDS011;3222;48.858;10.128;2022-12-18T04:22:57;21.47;;;9.83;;
6378;SDS011;3222;48.858;10.128;2022-12-18T04:25:23;11.30;;;6.67;;
6378;SDS011;3222;48.858;10.128;2022-12-18T04:27:59;12.47;;;7.07;;
6378;SDS011;3222;48.858;10.128;2022-12-18T04:30:24;12.87;;;7.63;;
6378;SDS011;3222;48.858;10.128;2022-12-18T04:32:50;16.10;;;7.80;;
6378;SDS011;3222;48.858;10.128;2022-12-18T04:35:16;7.50;;;4.93;;
6378;SDS011;3222;48.858;10.128;2022-12-18T04:37:43;11.50;;;5.80;;
6378;SDS011;3222;48.858;10.128;2022-12-18T04:40:09;13.53;;;7.73;;
6378;SDS011;3222;48.858;10.128;2022-12-18T04:42:40;8.50;;;5.23;;
6378;SDS011;3222;48.858;10.128;2022-12-18T04:45:06;14.57;;;8.40;;
6378;SDS011;3222;48.858;10.128;2022-12-18T04:47:32;12.67;;;6.13;;
6378;SDS011;3222;48.858;10.128;2022-12-18T04:49:58;17.83;;;8.47;;
6378;SDS011;3222;48.858;10.128;2022-12-18T04:52:23;15.17;;;9.37;;
6378;SDS011;3222;48.858;10.128;2022-12-18T04:54:49;13.37;;;7.67;;
6378;SDS011;3222;48.858;10.128;2022-12-18T04:57:15;17.60;;;9.60;;
6378;SDS011;3222;48.858;10.128;2022-12-18T04:59:43;12.40;;;7.67;;
6378;SDS011;3222;48.858;10.128;2022-12-18T05:02:09;17.50;;;10.03;;
6378;SDS011;3222;48.858;10.128;2022-12-18T05:04:34;16.73;;;8.30;;
6378;SDS011;3222;48.858;10.128;2022-12-18T05:07:00;14.13;;;6.87;;
6378;SDS011;3222;48.858;10.128;2022-12-18T05:09:26;11.57;;;5.00;;
6378;SDS011;3222;48.858;10.128;2022-12-18T05:11:51;10.17;;;6.00;;
6378;SDS011;3222;48.858;10.128;2022-12-18T05:14:17;16.57;;;6.80;;
6378;SDS011;3222;48.858;10.128;2022-12-18T05:16:43;8.63;;;5.67;;
6378;SDS011;3222;48.858;10.128;2022-12-18T05:19:08;25.00;;;8.87;;
6378;SDS011;3222;48.858;10.128;2022-12-18T05:21:34;21.97;;;10.00;;
6378;SDS011;3222;48.858;10.128;2022-12-18T05:23:59;21.77;;;11.00;;
6378;SDS011;3222;48.858;10.128;2022-12-18T05:26:25;20.17;;;8.93;;
6378;SDS011;3222;48.858;10.128;2022-12-18T05:28:51;14.77;;;9.17;;
6378;SDS011;3222;48.858;10.128;2022-12-18T05:31:16;21.83;;;8.53;;
6378;SDS011;3222;48.858;10.128;2022-12-18T05:33:42;16.77;;;8.63;;
6378;SDS011;3222;48.858;10.128;2022-12-18T05:36:08;22.43;;;11.47;;
6378;SDS011;3222;48.858;10.128;2022-12-18T05:38:35;27.80;;;10.97;;
6378;SDS011;3222;48.858;10.128;2022-12-18T05:41:02;20.17;;;9.67;;
6378;SDS011;3222;48.858;10.128;2022-12-18T05:43:28;29.77;;;12.17;;
6378;SDS011;3222;48.858;10.128;2022-12-18T05:45:54;20.07;;;8.23;;
6378;SDS011;3222;48.858;10.128;2022-12-18T05:48:21;12.10;;;8.87;;
6378;SDS011;3222;48.858;10.128;2022-12-18T05:50:47;8.30;;;4.67;;
6378;SDS011;3222;48.858;10.128;2022-12-18T05:53:14;9.27;;;5.10;;
6378;SDS011;3222;48.858;10.128;2022-12-18T05:55:42;13.57;;;7.03;;
6378;SDS011;3222;48.858;10.128;2022-12-18T05:58:09;15.20;;;7.67;;
6378;SDS011;3222;48.858;10.128;2022-12-18T06:00:37;9.47;;;5.97;;
6378;SDS011;3222;48.858;10.128;2022-12-18T06:03:08;6.57;;;4.40;;
6378;SDS011;3222;48.858;10.128;2022-12-18T06:05:35;15.13;;;8.63;;
6378;SDS011;3222;48.858;10.128;2022-12-18T06:08:05;21.93;;;8.97;;
6378;SDS011;3222;48.858;10.128;2022-12-18T06:10:31;18.17;;;9.23;;
6378;SDS011;3222;48.858;10.128;2022-12-18T06:12:57;9.13;;;3.90;;
6378;SDS011;3222;48.858;10.128;2022-12-18T06:15:23;22.07;;;10.07;;
6378;SDS011;3222;48.858;10.128;2022-12-18T06:17:49;19.77;;;9.73;;
6378;SDS011;3222;48.858;10.128;2022-12-18T06:20:15;13.17;;;7.30;;
6378;SDS011;3222;48.858;10.128;2022-12-18T06:22:41;22.70;;;9.27;;
6378;SDS011;3222;48.858;10.128;2022-12-18T06:25:06;9.93;;;6.00;;
6378;SDS011;3222;48.858;10.128;2022-12-18T06:27:32;21.23;;;10.33;;
6378;SDS011;3222;48.858;10.128;2022-12-18T06:29:58;23.43;;;11.13;;
6378;SDS011;3222;48.858;10.128;2022-12-18T06:32:25;15.97;;;8.97;;
6378;SDS011;3222;48.858;10.128;2022-12-18T06:34:51;16.13;;;9.77;;
6378;SDS011;3222;48.858;10.128;2022-12-18T06:37:16;14.23;;;9.20;;
6378;SDS011;3222;48.858;10.128;2022-12-18T06:39:42;11.47;;;7.60;;
6378;SDS011;3222;48.858;10.128;2022-12-18T06:42:08;31.63;;;12.40;;
6378;SDS011;3222;48.858;10.128;2022-12-18T06:44:33;24.80;;;11.80;;
6378;SDS011;3222;48.858;10.128;2022-12-18T06:46:59;11.37;;;5.93;;
6378;SDS011;3222;48.858;10.128;2022-12-18T06:49:24;17.27;;;7.37;;
6378;SDS011;3222;48.858;10.128;2022-12-18T06:51:50;12.23;;;6.17;;
6378;SDS011;3222;48.858;10.128;2022-12-18T06:54:16;10.40;;;5.03;;
6378;SDS011;3222;48.858;10.128;2022-12-18T06:56:41;12.63;;;7.37;;
6378;SDS011;3222;48.858;10.128;2022-12-18T06:59:07;9.83;;;5.60;;
6378;SDS011;3222;48.858;10.128;2022-12-18T07:01:32;7.87;;;5.80;;
6378;SDS011;3222;48.858;10.128;2022-12-18T07:03:58;17.37;;;9.90;;
6378;SDS011;3222;48.858;10.128;2022-12-18T07:06:24;23.47;;;11.23;;
6378;SDS011;3222;48.858;10.128;2022-12-18T07:08:50;19.50;;;9.23;;
6378;SDS011;3222;48.858;10.128;2022-12-18T07:11:17;30.90;;;14.80;;
6378;SDS011;3222;48.858;10.128;2022-12-18T07:13:43;27.57;;;10.43;;
6378;SDS011;3222;48.858;10.128;2022-12-18T07:16:12;29.40;;;13.90;;
6378;SDS011;3222;48.858;10.128;2022-12-18T07:18:42;24.07;;;10.97;;
6378;SDS011;3222;48.858;10.128;2022-12-18T07:21:09;28.77;;;12.90;;
6378;SDS011;3222;48.858;10.128;2022-12-18T07:23:38;36.43;;;14.73;;
6378;SDS011;3222;48.858;10.128;2022-12-18T07:26:05;37.33;;;15.23;;
6378;SDS011;3222;48.858;10.128;2022-12-18T07:28:34;37.77;;;15.37;;
6378;SDS011;3222;48.858;10.128;2022-12-18T07:31:07;34.43;;;14.50;;
6378;SDS011;3222;48.858;10.128;2022-12-18T07:33:34;33.90;;;15.23;;
6378;SDS011;3222;48.858;10.128;2022-12-18T07:36:00;27.93;;;13.50;;
6378;SDS011;3222;48.858;10.128;2022-12-18T07:38:28;20.37;;;8.97;;
6378;SDS011;3222;48.858;10.128;2022-12-18T07:40:54;27.97;;;12.07;;
6378;SDS011;3222;48.858;10.128;2022-12-18T07:43:19;33.60;;;13.57;;
6378;SDS011;3222;48.858;10.128;2022-12-18T07:45:45;32.53;;;14.20;;
6378;SDS011;3222;48.858;10.128;2022-12-18T07:48:14;30.07;;;12.93;;
6378;SDS011;3222;48.858;10.128;2022-12-18T07:50:39;27.23;;;11.30;;
6378;SDS011;3222;48.858;10.128;2022-12-18T07:53:05;18.57;;;9.27;;
6378;SDS011;3222;48.858;10.128;2022-12-18T07:55:31;42.00;;;14.97;;
6378;SDS011;3222;48.858;10.128;2022-12-18T07:57:57;29.53;;;11.33;;
6378;SDS011;3222;48.858;10.128;2022-12-18T08:00:25;27.90;;;13.17;;
6378;SDS011;3222;48.858;10.128;2022-12-18T08:02:51;28.10;;;12.90;;
6378;SDS011;3222;48.858;10.128;2022-12-18T08:05:16;26.70;;;12.70;;
6378;SDS011;3222;48.858;10.128;2022-12-18T08:07:42;32.27;;;14.53;;
6378;SDS011;3222;48.858;10.128;2022-12-18T08:10:08;19.43;;;10.47;;
6378;SDS011;3222;48.858;10.128;2022-12-18T08:12:34;18.53;;;9.67;;
6378;SDS011;3222;48.858;10.128;2022-12-18T08:14:59;24.70;;;11.53;;
6378;SDS011;3222;48.858;10.128;2022-12-18T08:17:25;28.23;;;13.00;;
6378;SDS011;3222;48.858;10.128;2022-12-18T08:19:50;16.67;;;9.47;;
6378;SDS011;3222;48.858;10.128;2022-12-18T08:22:16;16.93;;;7.73;;
6378;SDS011;3222;48.858;10.128;2022-12-18T08:24:42;19.80;;;8.50;;
6378;SDS011;3222;48.858;10.128;2022-12-18T08:27:07;27.63;;;12.63;;
6378;SDS011;3222;48.858;10.128;2022-12-18T08:29:33;16.13;;;8.77;;
6378;SDS011;3222;48.858;10.128;2022-12-18T08:31:59;40.57;;;13.87;;
6378;SDS011;3222;48.858;10.128;2022-12-18T08:34:24;31.57;;;13.80;;
6378;SDS011;3222;48.858;10.128;2022-12-18T08:36:50;30.47;;;11.60;;
6378;SDS011;3222;48.858;10.128;2022-12-18T08:39:15;13.63;;;6.83;;
6378;SDS011;3222;48.858;10.128;2022-12-18T08:41:41;24.33;;;12.30;;
6378;SDS011;3222;48.858;10.128;2022-12-18T08:44:07;29.10;;;13.17;;
6378;SDS011;3222;48.858;10.128;2022-12-18T08:46:51;27.80;;;11.73;;
6378;SDS011;3222;48.858;10.128;2022-12-18T08:49:17;17.77;;;9.67;;
6378;SDS011;3222;48.858;10.128;2022-12-18T08:51:43;37.20;;;12.90;;
6378;SDS011;3222;48.858;10.128;2022-12-18T08:54:10;18.67;;;9.70;;
6378;SDS011;3222;48.858;10.128;2022-12-18T08:56:38;23.67;;;11.20;;
6378;SDS011;3222;48.858;10.128;2022-12-18T08:59:03;27.60;;;11.23;;
6378;SDS011;3222;48.858;10.128;2022-12-18T09:01:29;17.83;;;9.63;;
6378;SDS011;3222;48.858;10.128;2022-12-18T09:03:55;31.03;;;14.83;;
6378;SDS011;3222;48.858;10.128;2022-12-18T09:06:21;33.97;;;13.80;;
6378;SDS011;3222;48.858;10.128;2022-12-18T09:08:48;30.93;;;14.30;;
6378;SDS011;3222;48.858;10.128;2022-12-18T09:11:15;22.73;;;11.63;;
6378;SDS011;3222;48.858;10.128;2022-12-18T09:13:45;30.00;;;13.17;;
6378;SDS011;3222;48.858;10.128;2022-12-18T09:16:11;30.33;;;12.20;;
6378;SDS011;3222;48.858;10.128;2022-12-18T09:18:37;23.10;;;11.03;;
6378;SDS011;3222;48.858;10.128;2022-12-18T09:21:13;16.90;;;8.43;;
6378;SDS011;3222;48.858;10.128;2022-12-18T09:23:44;25.47;;;10.73;;
6378;SDS011;3222;48.858;10.128;2022-12-18T09:26:14;21.53;;;11.47;;
6378;SDS011;3222;48.858;10.128;2022-12-18T09:28:39;23.53;;;10.43;;
6378;SDS011;3222;48.858;10.128;2022-12-18T09:31:06;15.57;;;8.63;;
6378;SDS011;3222;48.858;10.128;2022-12-18T09:33:33;19.13;;;10.47;;
6378;SDS011;3222;48.858;10.128;2022-12-18T09:36:00;33.70;;;14.13;;
6378;SDS011;3222;48.858;10.128;2022-12-18T09:38:30;32.87;;;12.37;;
6378;SDS011;3222;48.858;10.128;2022-12-18T09:41:00;37.33;;;15.23;;
6378;SDS011;3222;48.858;10.128;2022-12-18T09:43:43;26.80;;;12.67;;
6378;SDS011;3222;48.858;10.128;2022-12-18T09:46:16;25.57;;;12.30;;
6378;SDS011;3222;48.858;10.128;2022-12-18T09:48:51;29.33;;;13.07;;
6378;SDS011;3222;48.858;10.128;2022-12-18T09:51:21;25.43;;;12.77;;
6378;SDS011;3222;48.858;10.128;2022-12-18T09:53:53;23.67;;;11.23;;
6378;SDS011;3222;48.858;10.128;2022-12-18T09:56:22;25.00;;;11.87;;
6378;SDS011;3222;48.858;10.128;2022-12-18T09:58:57;29.83;;;13.93;;
6378;SDS011;3222;48.858;10.128;2022-12-18T10:01:24;32.60;;;15.07;;
6378;SDS011;3222;48.858;10.128;2022-12-18T10:03:52;31.20;;;13.63;;
6378;SDS011;3222;48.858;10.128;2022-12-18T10:09:09;35.80;;;15.67;;
6378;SDS011;3222;48.858;10.128;2022-12-18T10:17:27;26.97;;;13.33;;
6378;SDS011;3222;48.858;10.128;2022-12-18T10:20:05;31.90;;;15.07;;
6378;SDS011;3222;48.858;10.128;2022-12-18T10:28:12;30.97;;;13.50;;
6378;SDS011;3222;48.858;10.128;2022-12-18T10:30:39;37.03;;;14.40;;
6378;SDS011;3222;48.858;10.128;2022-12-18T10:33:09;36.27;;;14.53;;
6378;SDS011;3222;48.858;10.128;2022-12-18T10:35:37;36.83;;;15.87;;
6378;SDS011;3222;48.858;10.128;2022-12-18T10:38:20;45.17;;;15.10;;
6378;SDS011;3222;48.858;10.128;2022-12-18T10:43:19;29.30;;;14.23;;
6378;SDS011;3222;48.858;10.128;2022-12-18T10:51:04;32.30;;;15.57;;
6378;SDS011;3222;48.858;10.128;2022-12-18T10:53:32;29.87;;;14.70;;
6378;SDS011;3222;48.858;10.128;2022-12-18T10:56:00;32.70;;;15.17;;
6378;SDS011;3222;48.858;10.128;2022-12-18T10:58:29;33.20;;;15.70;;
6378;SDS011;3222;48.858;10.128;2022-12-18T11:03:38;32.73;;;15.50;;
6378;SDS011;3222;48.858;10.128;2022-12-18T11:06:08;33.83;;;14.77;;
6378;SDS011;3222;48.858;10.128;2022-12-18T11:08:39;28.67;;;14.63;;
6378;SDS011;3222;48.858;10.128;2022-12-18T11:11:14;34.60;;;15.57;;
6378;SDS011;3222;48.858;10.128;2022-12-18T11:14:00;32.33;;;15.03;;
6378;SDS011;3222;48.858;10.128;2022-12-18T11:16:26;32.23;;;15.13;;
6378;SDS011;3222;48.858;10.128;2022-12-18T11:18:53;31.20;;;15.00;;
6378;SDS011;3222;48.858;10.128;2022-12-18T11:21:19;35.87;;;16.17;;
6378;SDS011;3222;48.858;10.128;2022-12-18T11:23:46;34.33;;;15.90;;
6378;SDS011;3222;48.858;10.128;2022-12-18T11:26:17;32.33;;;15.57;;
6378;SDS011;3222;48.858;10.128;2022-12-18T11:28:44;34.07;;;15.07;;
6378;SDS011;3222;48.858;10.128;2022-12-18T11:31:24;30.40;;;15.07;;
6378;SDS011;3222;48.858;10.128;2022-12-18T11:36:21;31.87;;;15.77;;
6378;SDS011;3222;48.858;10.128;2022-12-18T11:38:48;28.30;;;13.77;;
6378;SDS011;3222;48.858;10.128;2022-12-18T11:41:24;28.50;;;14.07;;
6378;SDS011;3222;48.858;10.128;2022-12-18T11:44:18;27.57;;;13.90;;
6378;SDS011;3222;48.858;10.128;2022-12-18T11:46:55;30.17;;;15.10;;
6378;SDS011;3222;48.858;10.128;2022-12-18T11:49:28;28.57;;;13.20;;
6378;SDS011;3222;48.858;10.128;2022-12-18T11:54:25;26.93;;;12.90;;
6378;SDS011;3222;48.858;10.128;2022-12-18T12:07:57;32.97;;;13.63;;
6378;SDS011;3222;48.858;10.128;2022-12-18T12:10:52;31.80;;;14.40;;
6378;SDS011;3222;48.858;10.128;2022-12-18T12:16:39;30.90;;;14.77;;
6378;SDS011;3222;48.858;10.128;2022-12-18T12:22:09;27.53;;;15.30;;
6378;SDS011;3222;48.858;10.128;2022-12-18T12:24:49;35.10;;;15.70;;
6378;SDS011;3222;48.858;10.128;2022-12-18T12:27:28;24.47;;;13.97;;
6378;SDS011;3222;48.858;10.128;2022-12-18T12:30:17;28.97;;;14.77;;
6378;SDS011;3222;48.858;10.128;2022-12-18T12:38:28;31.57;;;15.63;;
6378;SDS011;3222;48.858;10.128;2022-12-18T12:41:17;28.70;;;14.63;;
6378;SDS011;3222;48.858;10.128;2022-12-18T12:44:06;26.97;;;15.23;;
6378;SDS011;3222;48.858;10.128;2022-12-18T12:46:36;29.93;;;14.80;;
6378;SDS011;3222;48.858;10.128;2022-12-18T12:49:09;25.47;;;13.73;;
6378;SDS011;3222;48.858;10.128;2022-12-18T12:51:40;30.57;;;14.93;;
6378;SDS011;3222;48.858;10.128;2022-12-18T12:54:17;29.53;;;14.87;;
6378;SDS011;3222;48.858;10.128;2022-12-18T12:56:49;29.70;;;15.03;;
6378;SDS011;3222;48.858;10.128;2022-12-18T12:59:30;30.83;;;13.60;;
6378;SDS011;3222;48.858;10.128;2022-12-18T13:07:29;25.87;;;14.33;;
6378;SDS011;3222;48.858;10.128;2022-12-18T13:10:13;27.27;;;13.20;;
6378;SDS011;3222;48.858;10.128;2022-12-18T13:12:53;28.77;;;13.03;;
6378;SDS011;3222;48.858;10.128;2022-12-18T13:20:37;28.10;;;12.90;;
6378;SDS011;3222;48.858;10.128;2022-12-18T13:25:53;28.20;;;13.47;;
6378;SDS011;3222;48.858;10.128;2022-12-18T13:29:03;24.00;;;12.63;;
6378;SDS011;3222;48.858;10.128;2022-12-18T13:31:10;25.67;;;13.33;;
6378;SDS011;3222;48.858;10.128;2022-12-18T13:33:46;27.93;;;13.10;;
6378;SDS011;3222;48.858;10.128;2022-12-18T13:36:13;29.17;;;13.03;;
6378;SDS011;3222;48.858;10.128;2022-12-18T13:38:41;25.60;;;12.33;;
6378;SDS011;3222;48.858;10.128;2022-12-18T13:43:46;25.60;;;13.07;;
6378;SDS011;3222;48.858;10.128;2022-12-18T13:46:18;28.50;;;13.97;;
6378;SDS011;3222;48.858;10.128;2022-12-18T13:48:56;24.87;;;12.97;;
6378;SDS011;3222;48.858;10.128;2022-12-18T13:51:32;22.93;;;12.07;;
6378;SDS011;3222;48.858;10.128;2022-12-18T13:54:00;25.30;;;12.67;;
6378;SDS011;3222;48.858;10.128;2022-12-18T13:56:43;27.57;;;13.43;;
6378;SDS011;3222;48.858;10.128;2022-12-18T13:59:12;27.13;;;13.30;;
6378;SDS011;3222;48.858;10.128;2022-12-18T14:02:13;27.13;;;13.33;;
6378;SDS011;3222;48.858;10.128;2022-12-18T14:04:38;27.27;;;13.87;;
6378;SDS011;3222;48.858;10.128;2022-12-18T14:07:10;32.33;;;15.27;;
6378;SDS011;3222;48.858;10.128;2022-12-18T14:09:58;33.03;;;14.30;;
6378;SDS011;3222;48.858;10.128;2022-12-18T14:12:26;30.93;;;14.50;;
6378;SDS011;3222;48.858;10.128;2022-12-18T14:15:30;30.73;;;13.67;;
6378;SDS011;3222;48.858;10.128;2022-12-18T14:20:40;31.73;;;14.30;;
6378;SDS011;3222;48.858;10.128;2022-12-18T14:23:29;30.53;;;13.80;;
6378;SDS011;3222;48.858;10.128;2022-12-18T14:26:03;29.23;;;13.57;;
6378;SDS011;3222;48.858;10.128;2022-12-18T14:28:44;32.00;;;14.87;;
6378;SDS011;3222;48.858;10.128;2022-12-18T14:31:17;27.43;;;14.20;;
6378;SDS011;3222;48.858;10.128;2022-12-18T14:33:43;34.17;;;14.10;;
6378;SDS011;3222;48.858;10.128;2022-12-18T14:36:14;31.57;;;14.70;;
6378;SDS011;3222;48.858;10.128;2022-12-18T14:38:42;27.70;;;14.67;;
6378;SDS011;3222;48.858;10.128;2022-12-18T14:41:13;29.93;;;15.37;;
6378;SDS011;3222;48.858;10.128;2022-12-18T14:43:41;30.80;;;15.13;;
6378;SDS011;3222;48.858;10.128;2022-12-18T14:46:28;30.73;;;15.07;;
6378;SDS011;3222;48.858;10.128;2022-12-18T14:48:54;29.13;;;14.23;;
6378;SDS011;3222;48.858;10.128;2022-12-18T14:51:21;31.47;;;14.67;;
6378;SDS011;3222;48.858;10.128;2022-12-18T14:53:58;31.60;;;14.53;;
6378;SDS011;3222;48.858;10.128;2022-12-18T14:56:32;33.10;;;14.80;;
6378;SDS011;3222;48.858;10.128;2022-12-18T14:59:01;32.17;;;15.13;;
6378;SDS011;3222;48.858;10.128;2022-12-18T15:01:30;30.50;;;15.23;;
6378;SDS011;3222;48.858;10.128;2022-12-18T15:04:00;27.60;;;14.27;;
6378;SDS011;3222;48.858;10.128;2022-12-18T15:06:28;28.80;;;15.33;;
6378;SDS011;3222;48.858;10.128;2022-12-18T15:09:00;31.60;;;14.77;;
6378;SDS011;3222;48.858;10.128;2022-12-18T15:13:57;31.77;;;14.63;;
6378;SDS011;3222;48.858;10.128;2022-12-18T15:16:24;27.50;;;14.17;;
6378;SDS011;3222;48.858;10.128;2022-12-18T15:18:49;31.07;;;14.23;;
6378;SDS011;3222;48.858;10.128;2022-12-18T15:21:19;31.33;;;14.50;;
6378;SDS011;3222;48.858;10.128;2022-12-18T15:23:49;30.80;;;14.77;;
6378;SDS011;3222;48.858;10.128;2022-12-18T15:26:17;29.13;;;13.70;;
6378;SDS011;3222;48.858;10.128;2022-12-18T15:28:53;29.50;;;13.87;;
6378;SDS011;3222;48.858;10.128;2022-12-18T15:31:22;26.67;;;12.87;;
6378;SDS011;3222;48.858;10.128;2022-12-18T15:36:18;25.10;;;13.03;;
6378;SDS011;3222;48.858;10.128;2022-12-18T15:38:48;26.00;;;13.67;;
6378;SDS011;3222;48.858;10.128;2022-12-18T15:41:16;35.13;;;14.90;;
6378;SDS011;3222;48.858;10.128;2022-12-18T15:43:43;30.17;;;14.13;;
6378;SDS011;3222;48.858;10.128;2022-12-18T15:46:14;29.30;;;13.87;;
6378;SDS011;3222;48.858;10.128;2022-12-18T15:48:45;31.07;;;13.90;;
6378;SDS011;3222;48.858;10.128;2022-12-18T15:51:17;21.87;;;11.00;;
6378;SDS011;3222;48.858;10.128;2022-12-18T15:53:45;25.83;;;12.70;;
6378;SDS011;3222;48.858;10.128;2022-12-18T15:56:12;23.10;;;12.67;;
6378;SDS011;3222;48.858;10.128;2022-12-18T15:58:58;29.57;;;12.43;;
6378;SDS011;3222;48.858;10.128;2022-12-18T16:01:28;28.33;;;13.77;;
6378;SDS011;3222;48.858;10.128;2022-12-18T16:03:56;27.73;;;13.80;;
6378;SDS011;3222;48.858;10.128;2022-12-18T16:06:22;27.23;;;14.07;;
6378;SDS011;3222;48.858;10.128;2022-12-18T16:08:48;30.90;;;14.43;;
6378;SDS011;3222;48.858;10.128;2022-12-18T16:11:22;27.93;;;13.93;;
6378;SDS011;3222;48.858;10.128;2022-12-18T16:16:48;31.37;;;13.13;;
6378;SDS011;3222;48.858;10.128;2022-12-18T16:19:15;28.63;;;13.90;;
6378;SDS011;3222;48.858;10.128;2022-12-18T16:21:41;32.57;;;14.80;;
6378;SDS011;3222;48.858;10.128;2022-12-18T16:24:17;27.87;;;13.53;;
6378;SDS011;3222;48.858;10.128;2022-12-18T16:26:47;29.13;;;13.40;;
6378;SDS011;3222;48.858;10.128;2022-12-18T16:29:13;33.73;;;14.60;;
6378;SDS011;3222;48.858;10.128;2022-12-18T16:31:39;30.67;;;13.63;;
6378;SDS011;3222;48.858;10.128;2022-12-18T16:36:57;28.77;;;12.13;;
6378;SDS011;3222;48.858;10.128;2022-12-18T16:39:24;28.50;;;13.77;;
6378;SDS011;3222;48.858;10.128;2022-12-18T16:41:50;29.40;;;14.20;;
6378;SDS011;3222;48.858;10.128;2022-12-18T16:44:16;32.10;;;14.80;;
6378;SDS011;3222;48.858;10.128;2022-12-18T16:46:42;27.30;;;13.87;;
6378;SDS011;3222;48.858;10.128;2022-12-18T16:49:10;33.63;;;14.87;;
6378;SDS011;3222;48.858;10.128;2022-12-18T16:51:37;29.90;;;14.10;;